createdAt,value
2022-08-22T00:01:36.039Z,17.90
2022-08-22T00:03:12.016Z,18.50
2022-08-22T00:04:59.273Z,17.90
2022-08-22T00:08:08.929Z,17.80
2022-08-22T00:11:28.425Z,17.80
2022-08-22T00:15:03.786Z,17.70
2022-08-22T00:18:26.255Z,17.70
2022-08-22T00:21:43.703Z,17.70
2022-08-22T00:25:03.274Z,17.70
2022-08-22T00:28:17.078Z,17.60
2022-08-22T00:31:31.797Z,17.50
2022-08-22T00:35:02.509Z,17.40
2022-08-22T00:38:33.762Z,17.30
2022-08-22T00:41:53.228Z,17.20
2022-08-22T00:45:09.424Z,17.20
2022-08-22T00:48:35.246Z,17.00
2022-08-22T00:51:58.390Z,16.90
2022-08-22T00:55:36.420Z,16.90
2022-08-22T00:58:59.694Z,16.80
2022-08-22T01:03:09.731Z,16.70
2022-08-22T01:06:23.716Z,16.60
2022-08-22T01:09:47.182Z,16.50
2022-08-22T01:13:17.380Z,16.40
2022-08-22T01:16:56.149Z,16.30
2022-08-22T01:20:21.896Z,16.20
2022-08-22T01:23:47.909Z,16.20
2022-08-22T01:27:23.702Z,16.10
2022-08-22T01:31:03.122Z,16.00
2022-08-22T01:34:41.633Z,16.00
2022-08-22T01:38:12.779Z,16.00
2022-08-22T01:41:26.770Z,15.90
2022-08-22T01:44:54.029Z,15.80
2022-08-22T01:48:24.154Z,15.70
2022-08-22T01:51:37.629Z,15.70
2022-08-22T01:55:11.421Z,15.70
2022-08-22T01:58:21.026Z,15.60
2022-08-22T02:01:40.714Z,15.50
2022-08-22T02:04:52.069Z,15.50
2022-08-22T02:08:20.777Z,15.50
2022-08-22T02:11:54.542Z,15.40
2022-08-22T02:15:26.411Z,15.30
2022-08-22T02:18:44.297Z,15.20
2022-08-22T02:22:07.404Z,15.00
2022-08-22T02:25:25.757Z,15.00
2022-08-22T02:28:57.001Z,15.00
2022-08-22T02:32:09.994Z,14.80
2022-08-22T02:35:31.055Z,14.70
2022-08-22T02:38:42.765Z,14.60
2022-08-22T02:41:50.022Z,14.60
2022-08-22T02:45:30.060Z,14.50
2022-08-22T02:48:57.476Z,14.40
2022-08-22T02:52:16.821Z,14.40
2022-08-22T02:55:33.115Z,14.40
2022-08-22T02:58:44.854Z,14.40
2022-08-22T03:01:49.899Z,14.30
2022-08-22T03:05:23.592Z,14.30
2022-08-22T03:08:47.401Z,14.30
2022-08-22T03:12:12.060Z,14.20
2022-08-22T03:15:28.142Z,14.10
2022-08-22T03:19:18.366Z,14.00
2022-08-22T03:22:41.488Z,13.80
2022-08-22T03:26:01.690Z,13.80
2022-08-22T03:29:33.437Z,13.70
2022-08-22T03:32:56.911Z,13.70
2022-08-22T03:36:04.883Z,13.60
2022-08-22T03:39:17.714Z,13.50
2022-08-22T03:42:46.350Z,13.50
2022-08-22T03:46:27.075Z,13.50
2022-08-22T03:50:08.054Z,13.50
2022-08-22T03:53:50.117Z,13.40
2022-08-22T03:57:32.829Z,13.40
2022-08-22T04:01:14.621Z,13.40
2022-08-22T04:04:38.487Z,13.20
2022-08-22T04:08:13.072Z,13.20
2022-08-22T04:12:01.497Z,13.20
2022-08-22T04:15:18.022Z,13.20
2022-08-22T04:18:40.854Z,13.20
2022-08-22T04:22:21.022Z,13.30
2022-08-22T04:25:38.862Z,13.50
2022-08-22T04:28:51.066Z,13.60
2022-08-22T04:32:15.612Z,13.80
2022-08-22T04:35:39.053Z,13.90
2022-08-22T04:38:59.604Z,13.80
2022-08-22T04:42:33.322Z,13.80
2022-08-22T04:46:36.623Z,13.90
2022-08-22T04:50:04.766Z,13.90
2022-08-22T04:53:29.028Z,14.10
2022-08-22T04:56:55.197Z,14.30
2022-08-22T05:00:06.138Z,14.60
2022-08-22T05:03:16.108Z,14.90
2022-08-22T05:06:25.526Z,15.30
2022-08-22T05:09:35.678Z,15.60
2022-08-22T05:12:44.105Z,15.90
2022-08-22T05:15:54.202Z,16.20
2022-08-22T05:19:12.022Z,16.50
2022-08-22T05:22:24.909Z,16.80
2022-08-22T05:25:36.881Z,17.00
2022-08-22T05:28:45.599Z,17.30
2022-08-22T05:32:05.221Z,17.60
2022-08-22T05:35:10.399Z,17.90
2022-08-22T05:38:17.890Z,18.10
2022-08-22T05:41:26.527Z,18.40
2022-08-22T05:44:38.103Z,18.60
2022-08-22T05:47:50.883Z,18.80
2022-08-22T05:51:03.337Z,19.00
2022-08-22T05:54:21.567Z,19.40
2022-08-22T05:57:46.386Z,19.70
2022-08-22T06:00:57.780Z,19.90
2022-08-22T06:04:08.541Z,20.20
2022-08-22T06:07:31.143Z,20.40
2022-08-22T06:10:53.664Z,20.70
2022-08-22T06:14:07.846Z,21.00
2022-08-22T06:17:17.483Z,21.20
2022-08-22T06:20:45.103Z,21.60
2022-08-22T06:23:57.537Z,21.90
2022-08-22T06:27:07.642Z,22.20
2022-08-22T06:30:15.142Z,22.60
2022-08-22T06:33:26.294Z,22.80
2022-08-22T06:36:34.030Z,22.80
2022-08-22T06:39:45.644Z,22.90
2022-08-22T06:42:51.886Z,23.30
2022-08-22T06:45:56.533Z,23.40
2022-08-22T06:49:02.346Z,23.70
2022-08-22T06:52:12.348Z,24.00
2022-08-22T06:55:17.264Z,24.10
2022-08-22T06:58:34.340Z,24.30
2022-08-22T07:01:50.406Z,24.60
2022-08-22T07:04:55.523Z,24.80
2022-08-22T07:08:09.973Z,25.10
2022-08-22T07:11:22.169Z,25.20
2022-08-22T07:14:40.894Z,25.40
2022-08-22T07:18:00.620Z,25.70
2022-08-22T07:21:08.314Z,25.80
2022-08-22T07:24:19.112Z,25.90
2022-08-22T07:27:51.889Z,26.40
2022-08-22T07:31:06.831Z,26.40
2022-08-22T07:34:39.312Z,26.70
2022-08-22T07:37:56.981Z,26.60
2022-08-22T07:41:16.663Z,26.80
2022-08-22T07:44:26.836Z,27.40
2022-08-22T07:48:03.770Z,27.30
2022-08-22T07:51:17.562Z,27.80
2022-08-22T07:54:43.589Z,27.70
2022-08-22T07:57:56.627Z,27.80
2022-08-22T08:01:01.799Z,27.90
2022-08-22T08:04:14.881Z,28.10
2022-08-22T08:07:23.766Z,28.40
2022-08-22T08:10:32.932Z,28.60
2022-08-22T08:13:42.015Z,27.70
2022-08-22T08:17:12.457Z,28.20
2022-08-22T08:20:21.673Z,28.60
2022-08-22T08:23:31.383Z,28.70
2022-08-22T08:27:02.757Z,29.20
2022-08-22T08:30:16.683Z,29.40
2022-08-22T08:33:25.365Z,29.20
2022-08-22T08:36:39.905Z,28.50
2022-08-22T08:39:50.673Z,28.00
2022-08-22T08:43:24.945Z,29.30
2022-08-22T08:46:55.463Z,29.80
2022-08-22T08:50:22.133Z,29.30
2022-08-22T08:53:51.141Z,30.10
2022-08-22T08:57:34.791Z,30.40
2022-08-22T09:00:42.791Z,29.20
2022-08-22T09:04:16.214Z,29.00
2022-08-22T09:07:39.157Z,29.80
2022-08-22T09:11:28.330Z,30.20
2022-08-22T09:14:59.136Z,28.40
2022-08-22T09:18:31.885Z,27.60
2022-08-22T09:22:00.435Z,28.30
2022-08-22T09:25:38.637Z,29.00
2022-08-22T09:28:48.415Z,28.30
2022-08-22T09:32:00.287Z,27.10
2022-08-22T09:35:13.458Z,25.90
2022-08-22T09:38:39.868Z,25.10
2022-08-22T09:42:02.835Z,25.10
2022-08-22T09:45:07.490Z,25.50
2022-08-22T09:48:11.970Z,25.00
2022-08-22T09:51:31.975Z,24.80
2022-08-22T09:54:42.311Z,24.80
2022-08-22T09:57:55.006Z,24.90
2022-08-22T10:01:21.273Z,25.30
2022-08-22T10:04:50.605Z,24.60
2022-08-22T10:08:19.811Z,25.60
2022-08-22T10:11:31.868Z,26.30
2022-08-22T10:15:04.138Z,25.50
2022-08-22T10:18:28.432Z,25.10
2022-08-22T10:22:10.489Z,26.70
2022-08-22T10:25:33.146Z,26.20
2022-08-22T10:28:49.054Z,25.40
2022-08-22T10:32:01.387Z,26.00
2022-08-22T10:35:25.598Z,24.50
2022-08-22T10:38:34.367Z,25.70
2022-08-22T10:42:11.226Z,25.90
2022-08-22T10:45:23.979Z,25.10
2022-08-22T10:49:00.715Z,24.80
2022-08-22T10:52:31.586Z,24.30
2022-08-22T10:55:39.862Z,24.80
2022-08-22T10:59:01.116Z,24.90
2022-08-22T11:02:34.349Z,25.40
2022-08-22T11:05:42.904Z,24.90
2022-08-22T11:09:12.863Z,26.00
2022-08-22T11:12:37.230Z,26.60
2022-08-22T11:16:14.034Z,26.80
2022-08-22T11:19:36.427Z,25.60
2022-08-22T11:22:47.082Z,26.00
2022-08-22T11:26:13.285Z,25.70
2022-08-22T11:29:46.140Z,26.10
2022-08-22T11:33:10.033Z,26.70
2022-08-22T11:36:37.044Z,25.90
2022-08-22T11:40:12.058Z,26.30
2022-08-22T11:43:54.649Z,25.90
2022-08-22T11:47:02.801Z,27.10
2022-08-22T11:50:35.210Z,26.10
2022-08-22T11:53:47.096Z,25.80
2022-08-22T11:57:13.605Z,26.00
2022-08-22T12:00:26.641Z,26.70
2022-08-22T12:03:51.042Z,28.10
2022-08-22T12:07:36.006Z,27.90
2022-08-22T12:10:52.697Z,27.10
2022-08-22T12:14:15.737Z,25.90
2022-08-22T12:17:55.503Z,27.10
2022-08-22T12:21:30.487Z,26.90
2022-08-22T12:25:02.769Z,26.10
2022-08-22T12:28:17.611Z,27.40
2022-08-22T12:31:43.069Z,28.70
2022-08-22T12:35:15.223Z,28.40
2022-08-22T12:38:38.243Z,27.10
2022-08-22T12:42:08.637Z,26.90
2022-08-22T12:45:40.526Z,25.00
2022-08-22T12:48:52.213Z,26.90
2022-08-22T12:52:15.125Z,27.30
2022-08-22T12:55:32.752Z,26.60
2022-08-22T12:58:58.068Z,25.70
2022-08-22T13:02:19.070Z,26.60
2022-08-22T13:05:27.652Z,26.10
2022-08-22T13:08:40.851Z,26.10
2022-08-22T13:11:49.503Z,26.20
2022-08-22T13:15:17.126Z,25.80
2022-08-22T13:18:31.224Z,25.60
2022-08-22T13:21:44.741Z,24.80
2022-08-22T13:24:55.083Z,24.90
2022-08-22T13:28:02.448Z,25.60
2022-08-22T13:31:09.660Z,25.80
2022-08-22T13:34:30.890Z,27.30
2022-08-22T13:37:44.231Z,26.70
2022-08-22T13:40:51.822Z,29.00
2022-08-22T13:44:28.457Z,26.00
2022-08-22T13:47:39.344Z,25.30
2022-08-22T13:51:15.744Z,25.40
2022-08-22T13:54:39.982Z,24.90
2022-08-22T13:58:29.887Z,23.70
2022-08-22T14:02:01.744Z,23.30
2022-08-22T14:05:22.233Z,23.20
2022-08-22T14:08:31.838Z,23.60
2022-08-22T14:11:43.137Z,24.20
2022-08-22T14:14:54.306Z,24.80
2022-08-22T14:18:10.372Z,24.70
2022-08-22T14:21:41.891Z,24.80
2022-08-22T14:25:00.157Z,24.90
2022-08-22T14:28:09.387Z,23.60
2022-08-22T14:31:21.713Z,23.40
2022-08-22T14:34:28.929Z,23.80
2022-08-22T14:37:38.979Z,23.10
2022-08-22T14:40:46.922Z,23.30
2022-08-22T14:44:05.445Z,23.40
2022-08-22T14:47:54.104Z,24.00
2022-08-22T14:50:53.065Z,24.10
2022-08-22T14:54:21.253Z,24.60
2022-08-22T14:57:26.089Z,24.80
2022-08-22T15:00:42.426Z,24.60
2022-08-22T15:04:07.018Z,25.20
2022-08-22T15:07:28.122Z,25.50
2022-08-22T15:10:34.288Z,25.90
2022-08-22T15:13:43.137Z,25.80
2022-08-22T15:16:58.098Z,25.80
2022-08-22T15:20:10.865Z,25.90
2022-08-22T15:23:20.458Z,26.40
2022-08-22T15:26:40.837Z,24.90
2022-08-22T15:29:58.699Z,25.70
2022-08-22T15:33:14.625Z,25.50
2022-08-22T15:36:25.641Z,24.70
2022-08-22T15:39:37.988Z,23.80
2022-08-22T15:42:54.082Z,23.00
2022-08-22T15:46:21.003Z,23.10
2022-08-22T15:49:30.821Z,23.40
2022-08-22T15:53:06.616Z,24.00
2022-08-22T15:56:11.613Z,23.60
2022-08-22T15:59:53.816Z,23.10
2022-08-22T16:03:13.482Z,23.00
2022-08-22T16:06:50.611Z,24.10
2022-08-22T16:09:58.422Z,25.00
2022-08-22T16:13:21.051Z,26.00
2022-08-22T16:16:25.497Z,26.10
2022-08-22T16:19:32.948Z,25.90
2022-08-22T16:22:59.066Z,24.30
2022-08-22T16:26:03.680Z,24.10
2022-08-22T16:29:17.510Z,23.60
2022-08-22T16:32:28.110Z,23.50
2022-08-22T16:36:15.115Z,23.70
2022-08-22T16:39:22.481Z,24.80
2022-08-22T16:42:48.851Z,24.10
2022-08-22T16:45:53.775Z,23.00
2022-08-22T16:49:02.033Z,24.10
2022-08-22T16:52:22.215Z,23.30
2022-08-22T16:55:29.807Z,22.10
2022-08-22T16:58:57.040Z,21.80
2022-08-22T17:02:19.146Z,22.00
2022-08-22T17:05:42.773Z,21.90
2022-08-22T17:09:18.579Z,21.80
2022-08-22T17:13:06.345Z,21.70
2022-08-22T17:16:40.448Z,21.30
2022-08-22T17:19:57.031Z,20.90
2022-08-22T17:23:10.572Z,20.80
2022-08-22T17:26:25.610Z,20.70
2022-08-22T17:29:35.342Z,20.60
2022-08-22T17:33:41.332Z,20.60
2022-08-22T17:37:16.817Z,20.50
2022-08-22T17:40:27.432Z,20.40
2022-08-22T17:43:49.175Z,20.60
2022-08-22T17:47:00.813Z,20.60
2022-08-22T17:50:18.577Z,20.40
2022-08-22T17:53:29.634Z,20.40
2022-08-22T17:57:00.448Z,20.30
2022-08-22T18:00:16.633Z,20.30
2022-08-22T18:03:38.593Z,20.40
2022-08-22T18:06:56.423Z,20.30
2022-08-22T18:10:24.575Z,20.30
2022-08-22T18:13:52.639Z,20.20
2022-08-22T18:16:59.348Z,20.10
2022-08-22T18:20:39.034Z,20.10
2022-08-22T18:24:17.271Z,20.00
2022-08-22T18:27:45.929Z,19.80
2022-08-22T18:31:28.599Z,19.60
2022-08-22T18:34:41.742Z,19.50
2022-08-22T18:37:56.877Z,19.40
2022-08-22T18:41:19.653Z,19.30
2022-08-22T18:44:34.316Z,19.20
2022-08-22T18:47:38.462Z,19.00
2022-08-22T18:50:43.188Z,18.90
2022-08-22T18:53:55.323Z,18.80
2022-08-22T18:57:18.303Z,18.80
2022-08-22T19:00:46.201Z,18.80
2022-08-22T19:04:12.926Z,18.80
2022-08-22T19:07:58.678Z,18.60
2022-08-22T19:11:15.754Z,18.40
2022-08-22T19:14:55.902Z,18.20
2022-08-22T19:18:36.301Z,18.10
2022-08-22T19:22:22.446Z,18.10
2022-08-22T19:25:27.959Z,18.00
2022-08-22T19:28:37.174Z,17.90
2022-08-22T19:31:44.142Z,17.80
2022-08-22T19:34:48.582Z,17.90
2022-08-22T19:37:55.986Z,17.80
2022-08-22T19:41:00.582Z,17.80
2022-08-22T19:44:10.406Z,17.70
2022-08-22T19:47:17.617Z,17.60
2022-08-22T19:50:22.364Z,17.60
2022-08-22T19:53:48.853Z,17.60
2022-08-22T19:57:10.058Z,17.50
2022-08-22T20:00:20.896Z,17.40
2022-08-22T20:03:43.631Z,17.30
2022-08-22T20:07:01.566Z,17.30
2022-08-22T20:10:34.761Z,17.20
2022-08-22T20:13:39.908Z,17.20
2022-08-22T20:17:11.830Z,17.20
2022-08-22T20:20:19.647Z,17.20
2022-08-22T20:23:32.855Z,17.10
2022-08-22T20:26:52.193Z,16.90
2022-08-22T20:30:06.277Z,16.90
2022-08-22T20:33:24.876Z,16.90
2022-08-22T20:36:29.672Z,16.80
2022-08-22T20:39:49.853Z,16.70
2022-08-22T20:43:14.626Z,16.60
2022-08-22T20:46:46.154Z,16.60
2022-08-22T20:49:54.093Z,16.50
2022-08-22T20:53:18.362Z,16.40
2022-08-22T20:56:45.985Z,16.40
2022-08-22T21:00:13.851Z,16.30
2022-08-22T21:03:33.641Z,16.30
2022-08-22T21:06:39.181Z,16.20
2022-08-22T21:10:21.603Z,16.20
2022-08-22T21:13:34.141Z,16.20
2022-08-22T21:16:38.963Z,16.20
2022-08-22T21:19:43.529Z,16.20
2022-08-22T21:22:48.783Z,16.20
2022-08-22T21:25:59.090Z,16.20
2022-08-22T21:29:13.050Z,16.10
2022-08-22T21:32:26.213Z,16.10
2022-08-22T21:35:32.915Z,16.00
2022-08-22T21:38:38.388Z,16.00
2022-08-22T21:41:52.806Z,15.90
2022-08-22T21:45:06.547Z,15.70
2022-08-22T21:49:04.137Z,15.70
2022-08-22T21:52:08.638Z,15.70
2022-08-22T21:55:17.405Z,15.60
2022-08-22T21:58:35.978Z,15.60
2022-08-22T22:01:42.715Z,15.50
2022-08-22T22:04:50.341Z,15.50
2022-08-22T22:07:54.698Z,15.30
2022-08-22T22:11:08.434Z,15.20
2022-08-22T22:14:13.313Z,15.20
2022-08-22T22:17:19.911Z,15.20
2022-08-22T22:20:26.217Z,15.20
2022-08-22T22:23:31.123Z,15.20
2022-08-22T22:26:35.465Z,15.10
2022-08-22T22:29:39.835Z,15.10
2022-08-22T22:32:47.608Z,14.90
2022-08-22T22:35:54.229Z,14.90
2022-08-22T22:38:59.087Z,14.90
2022-08-22T22:42:04.299Z,14.80
2022-08-22T22:45:10.691Z,14.90
2022-08-22T22:48:18.836Z,14.90
2022-08-22T22:51:28.946Z,14.80
2022-08-22T22:54:34.158Z,14.80
2022-08-22T22:57:42.394Z,14.70
2022-08-22T23:00:47.363Z,14.80
2022-08-22T23:04:05.663Z,14.80
2022-08-22T23:07:13.322Z,14.80
2022-08-22T23:10:21.930Z,14.70
2022-08-22T23:13:26.621Z,14.60
2022-08-22T23:16:35.209Z,14.50
2022-08-22T23:19:42.003Z,14.40
2022-08-22T23:22:49.110Z,14.40
2022-08-22T23:25:53.627Z,14.40
2022-08-22T23:28:58.785Z,14.40
2022-08-22T23:32:04.396Z,14.40
2022-08-22T23:35:10.079Z,14.30
2022-08-22T23:38:14.709Z,14.20
2022-08-22T23:41:24.695Z,14.10
2022-08-22T23:44:32.065Z,14.00
2022-08-22T23:47:36.546Z,13.90
2022-08-22T23:50:40.960Z,13.90
2022-08-22T23:53:46.072Z,13.80
2022-08-22T23:56:59.995Z,13.70
